createdAt,value
2023-02-13T00:02:56.152Z,-0.73
2023-02-13T00:05:57.713Z,-0.74
2023-02-13T00:08:59.222Z,-0.80
2023-02-13T00:12:00.730Z,-0.84
2023-02-13T00:15:02.712Z,-0.81
2023-02-13T00:18:04.553Z,-0.92
2023-02-13T00:21:07.882Z,-0.83
2023-02-13T00:24:09.505Z,-0.75
2023-02-13T00:27:11.050Z,-0.90
2023-02-13T00:30:13.072Z,-0.99
2023-02-13T00:33:14.644Z,-0.96
2023-02-13T00:36:18.839Z,-1.05
2023-02-13T00:39:20.334Z,-1.05
2023-02-13T00:42:26.344Z,-1.10
2023-02-13T00:45:27.894Z,-0.99
2023-02-13T00:48:30.461Z,-0.95
2023-02-13T00:51:32.045Z,-0.98
2023-02-13T00:54:33.561Z,-0.96
2023-02-13T00:57:35.076Z,-1.05
2023-02-13T01:00:37.311Z,-1.10
2023-02-13T01:03:39.045Z,-1.14
2023-02-13T01:06:40.618Z,-1.14
2023-02-13T01:09:42.255Z,-1.20
2023-02-13T01:12:43.751Z,-1.23
2023-02-13T01:15:45.846Z,-1.20
2023-02-13T01:18:47.386Z,-1.09
2023-02-13T01:21:48.870Z,-1.07
2023-02-13T01:24:50.396Z,-1.08
2023-02-13T01:27:51.976Z,-1.12
2023-02-13T01:30:54.956Z,-1.18
2023-02-13T01:33:58.040Z,-1.13
2023-02-13T01:36:59.527Z,-1.18
2023-02-13T01:40:01.122Z,-1.18
2023-02-13T01:43:02.623Z,-1.30
2023-02-13T01:46:04.781Z,-1.37
2023-02-13T01:49:13.827Z,-1.40
2023-02-13T01:52:15.391Z,-1.42
2023-02-13T01:55:17.199Z,-1.48
2023-02-13T01:58:20.667Z,-1.43
2023-02-13T02:01:22.295Z,-1.41
2023-02-13T02:04:34.019Z,-1.43
2023-02-13T02:07:36.360Z,-1.52
2023-02-13T02:10:37.868Z,-1.44
2023-02-13T02:13:39.365Z,-1.46
2023-02-13T02:16:40.885Z,-1.48
2023-02-13T02:20:04.927Z,-1.57
2023-02-13T02:23:28.305Z,-1.52
2023-02-13T02:26:44.867Z,-1.61
2023-02-13T02:30:16.594Z,-1.65
2023-02-13T02:33:18.903Z,-1.67
2023-02-13T02:36:57.714Z,-1.66
2023-02-13T02:40:03.216Z,-1.72
2023-02-13T02:43:23.379Z,-1.70
2023-02-13T02:46:37.872Z,-1.69
2023-02-13T02:49:58.557Z,-1.75
2023-02-13T02:53:07.560Z,-1.69
2023-02-13T02:56:24.425Z,-1.64
2023-02-13T02:59:44.584Z,-1.84
2023-02-13T03:03:04.752Z,-1.93
2023-02-13T03:06:21.315Z,-1.96
2023-02-13T03:09:46.104Z,-2.03
2023-02-13T03:13:19.924Z,-2.04
2023-02-13T03:16:42.074Z,-1.94
2023-02-13T03:20:16.685Z,-2.01
2023-02-13T03:23:33.178Z,-1.91
2023-02-13T03:27:04.768Z,-1.94
2023-02-13T03:30:59.336Z,-1.94
2023-02-13T03:34:19.550Z,-1.99
2023-02-13T03:37:45.697Z,-1.98
2023-02-13T03:41:19.836Z,-2.04
2023-02-13T03:44:35.853Z,-2.09
2023-02-13T03:47:37.387Z,-2.08
2023-02-13T03:50:39.365Z,-2.03
2023-02-13T03:53:40.901Z,-2.03
2023-02-13T03:57:00.933Z,-2.08
2023-02-13T04:00:03.329Z,-1.97
2023-02-13T04:03:14.785Z,-1.98
2023-02-13T04:06:21.840Z,-1.98
2023-02-13T04:09:24.860Z,-2.00
2023-02-13T04:12:47.796Z,-2.09
2023-02-13T04:15:52.812Z,-2.10
2023-02-13T04:18:54.373Z,-2.09
2023-02-13T04:22:00.052Z,-2.07
2023-02-13T04:25:01.550Z,-2.10
2023-02-13T04:28:03.186Z,-2.11
2023-02-13T04:31:04.880Z,-2.17
2023-02-13T04:34:06.509Z,-2.16
2023-02-13T04:37:07.993Z,-2.13
2023-02-13T04:40:09.900Z,-2.11
2023-02-13T04:43:11.467Z,-2.05
2023-02-13T04:46:13.061Z,-2.15
2023-02-13T04:49:14.574Z,-2.25
2023-02-13T04:52:16.038Z,-2.25
2023-02-13T04:55:17.543Z,-2.31
2023-02-13T04:58:19.051Z,-2.26
2023-02-13T05:01:20.647Z,-2.28
2023-02-13T05:04:22.337Z,-2.33
2023-02-13T05:07:23.892Z,-2.32
2023-02-13T05:10:25.396Z,-2.29
2023-02-13T05:13:26.905Z,-2.27
2023-02-13T05:16:28.371Z,-2.24
2023-02-13T05:19:29.857Z,-2.24
2023-02-13T05:22:49.736Z,-2.25
2023-02-13T05:25:51.231Z,-2.26
2023-02-13T05:29:11.399Z,-2.26
2023-02-13T05:32:12.994Z,-2.26
2023-02-13T05:35:14.638Z,-2.34
2023-02-13T05:38:16.132Z,-2.39
2023-02-13T05:41:17.631Z,-2.37
2023-02-13T05:44:19.166Z,-2.36
2023-02-13T05:47:20.673Z,-2.43
2023-02-13T05:50:22.626Z,-2.40
2023-02-13T05:53:24.188Z,-2.46
2023-02-13T05:56:25.653Z,-2.43
2023-02-13T05:59:27.195Z,-2.43
2023-02-13T06:02:28.691Z,-2.40
2023-02-13T06:05:30.214Z,-2.30
2023-02-13T06:08:31.801Z,-2.31
2023-02-13T06:11:33.276Z,-2.38
2023-02-13T06:14:34.746Z,-2.36
2023-02-13T06:17:36.245Z,-2.42
2023-02-13T06:20:37.856Z,-2.42
2023-02-13T06:23:39.368Z,-2.42
2023-02-13T06:26:40.928Z,-2.52
2023-02-13T06:29:42.423Z,-2.51
2023-02-13T06:32:43.985Z,-2.59
2023-02-13T06:35:45.511Z,-2.56
2023-02-13T06:38:47.017Z,-2.51
2023-02-13T06:41:48.574Z,-2.46
2023-02-13T06:44:50.141Z,-2.50
2023-02-13T06:47:51.857Z,-2.47
2023-02-13T06:50:53.546Z,-2.46
2023-02-13T06:53:55.046Z,-2.50
2023-02-13T06:56:56.564Z,-2.52
2023-02-13T06:59:58.086Z,-2.49
2023-02-13T07:03:03.857Z,-2.50
2023-02-13T07:06:05.527Z,-2.52
2023-02-13T07:09:07.073Z,-2.45
2023-02-13T07:12:08.574Z,-2.43
2023-02-13T07:15:10.168Z,-2.45
2023-02-13T07:22:07.921Z,-2.44
2023-02-13T07:25:09.428Z,-2.40
2023-02-13T07:28:11.314Z,-2.33
2023-02-13T07:31:12.932Z,-2.43
2023-02-13T07:34:14.572Z,-2.40
2023-02-13T07:37:16.076Z,-2.37
2023-02-13T07:40:17.615Z,-2.31
2023-02-13T07:43:19.166Z,-2.23
2023-02-13T07:46:21.781Z,-2.20
2023-02-13T07:49:23.357Z,-2.23
2023-02-13T07:52:24.867Z,-2.30
2023-02-13T07:55:26.993Z,-2.37
2023-02-13T07:58:28.507Z,-2.29
2023-02-13T08:01:30.100Z,-2.24
2023-02-13T08:04:31.668Z,-1.92
2023-02-13T08:07:33.170Z,-1.58
2023-02-13T08:10:53.244Z,-1.54
2023-02-13T08:13:54.751Z,-1.43
2023-02-13T08:16:56.730Z,-1.11
2023-02-13T08:19:58.281Z,-0.19
2023-02-13T08:23:04.379Z,0.04
2023-02-13T08:26:05.962Z,0.43
2023-02-13T08:29:07.776Z,0.73
2023-02-13T08:32:09.337Z,1.24
2023-02-13T08:35:11.043Z,1.82
2023-02-13T08:38:12.572Z,2.70
2023-02-13T08:41:14.427Z,3.91
2023-02-13T08:44:15.968Z,5.18
2023-02-13T08:47:17.529Z,6.65
2023-02-13T08:50:19.109Z,7.74
2023-02-13T08:53:20.635Z,7.91
2023-02-13T08:56:22.350Z,7.92
2023-02-13T08:59:23.862Z,8.45
2023-02-13T09:02:25.416Z,9.45
2023-02-13T09:05:27.415Z,9.58
2023-02-13T09:08:28.945Z,7.58
2023-02-13T09:11:30.455Z,7.55
2023-02-13T09:14:32.106Z,8.45
2023-02-13T09:17:33.717Z,9.31
2023-02-13T09:20:36.144Z,8.77
2023-02-13T09:23:40.082Z,8.88
2023-02-13T09:26:41.626Z,9.06
2023-02-13T09:29:43.188Z,8.98
2023-02-13T09:32:44.648Z,7.48
2023-02-13T09:35:46.152Z,8.39
2023-02-13T09:38:48.322Z,8.00
2023-02-13T09:41:50.046Z,9.02
2023-02-13T09:44:53.234Z,8.39
2023-02-13T09:47:54.687Z,9.21
2023-02-13T09:50:57.133Z,9.13
2023-02-13T09:54:08.369Z,10.64
2023-02-13T09:57:29.030Z,8.84
2023-02-13T10:00:34.568Z,8.79
2023-02-13T10:03:44.972Z,8.42
2023-02-13T10:06:50.293Z,8.12
2023-02-13T10:09:58.261Z,8.04
2023-02-13T10:13:02.936Z,8.14
2023-02-13T10:16:12.646Z,7.32
2023-02-13T10:19:19.975Z,7.46
2023-02-13T10:22:43.266Z,7.48
2023-02-13T10:26:05.854Z,7.65
2023-02-13T10:29:26.931Z,7.13
2023-02-13T10:32:52.065Z,6.61
2023-02-13T10:36:19.565Z,7.09
2023-02-13T10:39:26.173Z,6.84
2023-02-13T10:42:46.237Z,6.53
2023-02-13T10:46:18.747Z,7.45
2023-02-13T10:49:47.825Z,8.81
2023-02-13T10:52:56.544Z,8.99
2023-02-13T10:56:17.053Z,9.31
2023-02-13T10:59:36.172Z,9.74
2023-02-13T11:02:38.748Z,9.05
2023-02-13T11:05:40.373Z,9.67
2023-02-13T11:08:46.401Z,10.30
2023-02-13T11:11:47.905Z,9.60
2023-02-13T11:15:03.466Z,10.37
2023-02-13T11:18:18.709Z,10.33
2023-02-13T11:21:21.835Z,10.36
2023-02-13T11:24:24.473Z,9.95
2023-02-13T11:27:28.497Z,9.40
2023-02-13T11:30:37.621Z,8.86
2023-02-13T11:33:39.272Z,8.35
2023-02-13T11:36:40.769Z,8.37
2023-02-13T11:39:43.117Z,7.61
2023-02-13T11:42:44.481Z,6.99
2023-02-13T11:45:45.941Z,6.88
2023-02-13T11:49:03.202Z,6.69
2023-02-13T11:52:06.357Z,6.84
2023-02-13T11:55:36.201Z,6.85
2023-02-13T11:58:37.903Z,7.24
2023-02-13T12:01:39.383Z,7.66
2023-02-13T12:04:40.942Z,7.65
2023-02-13T12:07:43.327Z,7.17
2023-02-13T12:10:44.825Z,7.25
2023-02-13T12:13:46.394Z,7.12
2023-02-13T12:17:31.487Z,7.11
2023-02-13T12:20:55.965Z,7.13
2023-02-13T12:24:11.332Z,7.10
2023-02-13T12:27:29.618Z,6.89
2023-02-13T12:30:34.203Z,6.78
2023-02-13T12:33:54.514Z,6.58
2023-02-13T12:37:05.653Z,6.80
2023-02-13T12:40:34.914Z,6.81
2023-02-13T12:44:01.394Z,6.86
2023-02-13T12:47:05.840Z,6.74
2023-02-13T12:50:28.588Z,6.76
2023-02-13T12:53:37.699Z,6.74
2023-02-13T12:56:51.454Z,6.67
2023-02-13T13:00:31.608Z,6.74
2023-02-13T13:03:54.577Z,6.91
2023-02-13T13:07:07.438Z,6.88
2023-02-13T13:10:33.538Z,6.26
2023-02-13T13:14:03.436Z,6.11
2023-02-13T13:17:30.069Z,6.05
2023-02-13T13:20:51.563Z,6.17
2023-02-13T13:24:01.027Z,6.13
2023-02-13T13:27:02.602Z,6.22
2023-02-13T13:30:06.396Z,6.35
2023-02-13T13:33:21.814Z,6.49
2023-02-13T13:36:41.118Z,6.51
2023-02-13T13:39:49.954Z,6.60
2023-02-13T13:43:20.738Z,6.58
2023-02-13T13:46:58.698Z,6.65
2023-02-13T13:50:00.314Z,6.49
2023-02-13T13:53:16.026Z,6.27
2023-02-13T13:56:17.510Z,6.21
2023-02-13T13:59:19.944Z,6.24
2023-02-13T14:02:21.332Z,6.27
2023-02-13T14:05:30.540Z,6.31
2023-02-13T14:08:41.224Z,6.87
2023-02-13T14:11:46.520Z,7.11
2023-02-13T14:14:49.094Z,7.16
2023-02-13T14:17:51.452Z,7.17
2023-02-13T14:20:54.913Z,7.25
2023-02-13T14:24:00.671Z,9.22
2023-02-13T14:27:06.302Z,10.15
2023-02-13T14:30:42.739Z,10.31
2023-02-13T14:33:44.242Z,10.00
2023-02-13T14:36:49.650Z,9.21
2023-02-13T14:40:11.415Z,8.89
2023-02-13T14:43:24.845Z,7.97
2023-02-13T14:46:38.122Z,7.62
2023-02-13T14:49:40.005Z,6.25
2023-02-13T14:52:43.120Z,6.15
2023-02-13T14:55:45.474Z,6.03
2023-02-13T14:58:51.743Z,5.87
2023-02-13T15:02:00.788Z,5.71
2023-02-13T15:05:04.839Z,5.83
2023-02-13T15:08:13.358Z,5.53
2023-02-13T15:11:38.159Z,5.33
2023-02-13T15:14:39.683Z,5.22
2023-02-13T15:17:41.265Z,5.00
2023-02-13T15:20:42.772Z,5.01
2023-02-13T15:23:44.287Z,4.61
2023-02-13T15:26:50.509Z,4.55
2023-02-13T15:30:20.070Z,4.76
2023-02-13T15:33:22.799Z,4.51
2023-02-13T15:36:25.767Z,4.17
2023-02-13T15:39:29.569Z,4.16
2023-02-13T15:42:40.021Z,3.95
2023-02-13T15:45:41.509Z,3.65
2023-02-13T15:48:43.163Z,3.51
2023-02-13T15:51:45.716Z,3.48
2023-02-13T15:54:51.137Z,3.46
2023-02-13T15:57:54.706Z,3.30
2023-02-13T16:00:56.393Z,3.11
2023-02-13T16:04:03.959Z,2.94
2023-02-13T16:07:09.026Z,2.78
2023-02-13T16:10:29.366Z,2.53
2023-02-13T16:13:30.871Z,2.45
2023-02-13T16:16:53.980Z,2.47
2023-02-13T16:20:11.430Z,2.50
2023-02-13T16:23:17.424Z,2.53
2023-02-13T16:26:19.463Z,2.44
2023-02-13T16:29:23.634Z,2.28
2023-02-13T16:32:32.887Z,1.98
2023-02-13T16:35:35.678Z,1.93
2023-02-13T16:38:37.918Z,1.81
2023-02-13T16:41:39.374Z,1.78
2023-02-13T16:44:40.841Z,1.73
2023-02-13T16:47:42.344Z,1.61
2023-02-13T16:50:43.852Z,1.57
2023-02-13T16:53:45.342Z,1.41
2023-02-13T16:57:06.389Z,1.34
2023-02-13T17:00:28.367Z,1.31
2023-02-13T17:03:31.618Z,1.26
2023-02-13T17:06:33.106Z,1.03
2023-02-13T17:09:34.613Z,1.06
2023-02-13T17:12:37.912Z,1.03
2023-02-13T17:15:43.973Z,0.86
2023-02-13T17:18:45.492Z,0.79
2023-02-13T17:21:47.003Z,0.94
2023-02-13T17:24:48.509Z,0.87
2023-02-13T17:27:50.943Z,0.89
2023-02-13T17:30:54.140Z,0.71
2023-02-13T17:33:55.661Z,0.55
2023-02-13T17:36:57.153Z,0.57
2023-02-13T17:39:58.856Z,0.64
2023-02-13T17:43:00.404Z,0.62
2023-02-13T17:46:01.967Z,0.69
2023-02-13T17:49:04.392Z,0.72
2023-02-13T17:52:05.884Z,0.48
2023-02-13T17:55:14.643Z,0.49
2023-02-13T17:58:16.147Z,0.34
2023-02-13T18:01:17.679Z,0.42
2023-02-13T18:04:19.213Z,1.87
2023-02-13T18:07:20.885Z,0.56
2023-02-13T18:10:23.447Z,0.39
2023-02-13T18:13:24.947Z,0.14
2023-02-13T18:16:26.427Z,0.09
2023-02-13T18:19:27.948Z,0.16
2023-02-13T18:22:29.470Z,-0.26
2023-02-13T18:25:31.023Z,-0.16
2023-02-13T18:28:32.581Z,-0.05
2023-02-13T18:31:34.175Z,0.29
2023-02-13T18:34:35.815Z,-0.05
2023-02-13T18:37:39.144Z,-0.19
2023-02-13T18:40:41.084Z,-0.22
2023-02-13T18:43:42.658Z,-0.24
2023-02-13T18:46:44.154Z,-0.37
2023-02-13T18:49:46.444Z,-0.50
2023-02-13T18:52:47.963Z,-0.62
2023-02-13T18:55:49.481Z,-0.69
2023-02-13T18:58:51.129Z,-0.73
2023-02-13T19:01:52.657Z,-0.76
2023-02-13T19:04:54.301Z,-0.82
2023-02-13T19:07:55.790Z,-0.81
2023-02-13T19:11:00.571Z,-0.82
2023-02-13T19:14:02.470Z,-0.90
2023-02-13T19:17:03.990Z,-0.90
2023-02-13T19:20:06.166Z,-0.92
2023-02-13T19:23:07.659Z,-0.91
2023-02-13T19:26:13.507Z,-1.03
2023-02-13T19:29:15.038Z,-1.03
2023-02-13T19:32:16.603Z,-1.07
2023-02-13T19:35:18.096Z,-1.14
2023-02-13T19:38:19.552Z,-1.16
2023-02-13T19:41:21.111Z,-1.14
2023-02-13T19:44:22.620Z,-1.10
2023-02-13T19:47:24.122Z,-1.13
2023-02-13T19:50:25.635Z,-1.09
2023-02-13T19:53:27.109Z,-1.12
2023-02-13T19:56:28.986Z,-1.16
2023-02-13T19:59:32.528Z,-1.13
2023-02-13T20:02:34.185Z,-1.15
2023-02-13T20:05:39.285Z,-1.22
2023-02-13T20:08:42.888Z,-1.18
2023-02-13T20:11:45.479Z,-1.28
2023-02-13T20:14:46.979Z,-1.27
2023-02-13T20:17:48.563Z,-1.30
2023-02-13T20:20:50.062Z,-1.33
2023-02-13T20:23:51.600Z,-1.37
2023-02-13T20:26:56.378Z,-1.32
2023-02-13T20:30:06.388Z,-1.35
2023-02-13T20:33:08.847Z,-1.32
2023-02-13T20:36:10.585Z,-1.33
2023-02-13T20:39:12.126Z,-1.38
2023-02-13T20:42:13.589Z,-1.44
2023-02-13T20:45:15.128Z,-1.49
2023-02-13T20:48:16.892Z,-1.53
2023-02-13T20:51:18.468Z,-1.58
2023-02-13T20:54:19.973Z,-1.50
2023-02-13T20:57:21.452Z,-1.52
2023-02-13T21:00:23.009Z,-1.47
2023-02-13T21:03:24.524Z,-1.45
2023-02-13T21:06:30.807Z,-1.49
2023-02-13T21:09:32.328Z,-1.47
2023-02-13T21:12:34.886Z,-1.44
2023-02-13T21:15:37.378Z,-1.40
2023-02-13T21:18:39.169Z,-1.46
2023-02-13T21:21:44.063Z,-1.56
2023-02-13T21:24:45.992Z,-1.68
2023-02-13T21:27:47.512Z,-1.69
2023-02-13T21:30:49.049Z,-1.67
2023-02-13T21:33:50.838Z,-1.67
2023-02-13T21:36:52.355Z,-1.58
2023-02-13T21:39:53.920Z,-1.72
2023-02-13T21:42:55.420Z,-1.78
2023-02-13T21:46:12.083Z,-1.85
2023-02-13T21:49:15.822Z,-1.90
2023-02-13T21:52:18.265Z,-1.89
2023-02-13T21:55:19.795Z,-1.93
2023-02-13T21:58:21.287Z,-1.88
2023-02-13T22:01:26.778Z,-1.92
2023-02-13T22:04:28.619Z,-1.99
2023-02-13T22:07:30.314Z,-2.00
2023-02-13T22:10:31.840Z,-1.99
2023-02-13T22:13:36.288Z,-1.99
2023-02-13T22:16:38.236Z,-2.00
2023-02-13T22:19:39.750Z,-2.02
2023-02-13T22:22:41.233Z,-2.07
2023-02-13T22:25:50.292Z,-2.08
2023-02-13T22:28:51.979Z,-2.11
2023-02-13T22:31:53.685Z,-2.14
2023-02-13T22:34:55.311Z,-2.15
2023-02-13T22:37:56.801Z,-2.19
2023-02-13T22:41:07.549Z,-2.22
2023-02-13T22:44:09.063Z,-2.21
2023-02-13T22:47:10.620Z,-2.23
2023-02-13T22:50:12.109Z,-2.24
2023-02-13T22:53:13.646Z,-2.27
2023-02-13T22:56:15.147Z,-2.23
2023-02-13T22:59:16.664Z,-2.19
2023-02-13T23:02:18.382Z,-2.21
2023-02-13T23:05:19.927Z,-2.20
2023-02-13T23:08:21.389Z,-2.20
2023-02-13T23:11:43.448Z,-2.19
2023-02-13T23:14:44.967Z,-2.07
2023-02-13T23:18:05.156Z,-2.06
2023-02-13T23:21:06.942Z,-2.09
2023-02-13T23:24:08.684Z,-2.17
2023-02-13T23:27:10.270Z,-2.15
2023-02-13T23:30:12.491Z,-2.20
2023-02-13T23:33:14.014Z,-2.17
2023-02-13T23:36:15.490Z,-2.15
2023-02-13T23:39:17.035Z,-2.15
2023-02-13T23:42:18.561Z,-2.28
2023-02-13T23:45:20.079Z,-2.27
2023-02-13T23:48:21.598Z,-2.18
2023-02-13T23:51:25.486Z,-2.23
2023-02-13T23:54:27.083Z,-2.22
2023-02-13T23:57:28.604Z,-2.30
